createdAt,value
2024-01-14T00:00:21.161Z,99623.22
2024-01-14T00:02:48.750Z,99622.16
2024-01-14T00:05:16.383Z,99626.72
2024-01-14T00:07:43.570Z,99631.03
2024-01-14T00:10:11.543Z,99614.84
2024-01-14T00:12:38.885Z,99609.44
2024-01-14T00:15:06.533Z,99607.69
2024-01-14T00:17:34.957Z,99612.56
2024-01-14T00:20:04.257Z,99611.31
2024-01-14T00:22:31.988Z,99606.44
2024-01-14T00:24:59.465Z,99602.44
2024-01-14T00:27:26.725Z,99607.41
2024-01-14T00:29:59.279Z,99606.53
2024-01-14T00:32:27.114Z,99603.31
2024-01-14T00:34:54.435Z,99599.06
2024-01-14T00:37:21.834Z,99589.34
2024-01-14T00:39:49.368Z,99594.34
2024-01-14T00:42:17.561Z,99587.16
2024-01-14T00:44:44.787Z,99582.31
2024-01-14T00:47:12.286Z,99585.94
2024-01-14T00:49:39.634Z,99585.03
2024-01-14T00:52:06.982Z,99583.28
2024-01-14T00:54:34.575Z,99579.56
2024-01-14T00:57:02.132Z,99569.97
2024-01-14T00:59:29.334Z,99574.94
2024-01-14T01:01:56.749Z,99570.50
2024-01-14T01:04:24.098Z,99570.16
2024-01-14T01:06:53.702Z,99578.50
2024-01-14T01:09:21.684Z,99567.31
2024-01-14T01:11:49.082Z,99569.63
2024-01-14T01:14:16.519Z,99567.28
2024-01-14T01:16:43.983Z,99565.00
2024-01-14T01:19:11.389Z,99567.69
2024-01-14T01:21:38.804Z,99553.41
2024-01-14T01:24:06.358Z,99548.69
2024-01-14T01:26:33.590Z,99549.38
2024-01-14T01:29:02.674Z,99547.69
2024-01-14T01:31:35.552Z,99537.84
2024-01-14T01:34:10.858Z,99535.41
2024-01-14T01:36:38.406Z,99528.41
2024-01-14T01:39:05.670Z,99519.16
2024-01-14T01:41:32.968Z,99509.62
2024-01-14T01:44:00.529Z,99519.59
2024-01-14T01:46:27.825Z,99507.53
2024-01-14T01:48:55.229Z,99504.94
2024-01-14T01:51:22.938Z,99513.56
2024-01-14T01:53:50.292Z,99516.13
2024-01-14T01:56:17.656Z,99488.91
2024-01-14T01:58:45.296Z,99500.59
2024-01-14T02:01:12.483Z,99492.56
2024-01-14T02:03:40.069Z,99492.66
2024-01-14T02:06:07.767Z,99498.31
2024-01-14T02:08:34.937Z,99496.38
2024-01-14T02:11:02.172Z,99496.72
2024-01-14T02:13:29.796Z,99500.03
2024-01-14T02:15:57.088Z,99499.00
2024-01-14T02:18:24.469Z,99502.41
2024-01-14T02:20:52.138Z,99488.59
2024-01-14T02:23:21.022Z,99490.31
2024-01-14T02:25:48.286Z,99492.25
2024-01-14T02:28:21.241Z,99487.75
2024-01-14T02:30:48.671Z,99485.72
2024-01-14T02:33:17.850Z,99467.34
2024-01-14T02:35:45.679Z,99475.28
2024-01-14T02:38:13.057Z,99469.84
2024-01-14T02:40:41.162Z,99460.59
2024-01-14T02:43:08.329Z,99470.44
2024-01-14T02:45:35.579Z,99477.31
2024-01-14T02:48:03.369Z,99461.78
2024-01-14T02:50:30.618Z,99463.94
2024-01-14T02:52:57.840Z,99462.91
2024-01-14T02:55:25.381Z,99474.09
2024-01-14T02:57:53.193Z,99468.19
2024-01-14T03:00:20.421Z,99464.66
2024-01-14T03:02:48.035Z,99461.88
2024-01-14T03:05:15.325Z,99449.34
2024-01-14T03:07:42.535Z,99452.22
2024-01-14T03:10:10.082Z,99447.06
2024-01-14T03:12:37.359Z,99448.22
2024-01-14T03:15:04.681Z,99434.56
2024-01-14T03:17:32.311Z,99434.53
2024-01-14T03:19:59.654Z,99423.22
2024-01-14T03:22:26.933Z,99432.75
2024-01-14T03:24:54.375Z,99419.91
2024-01-14T03:27:21.565Z,99417.28
2024-01-14T03:29:48.875Z,99417.81
2024-01-14T03:32:16.395Z,99417.75
2024-01-14T03:34:43.926Z,99419.25
2024-01-14T03:37:11.264Z,99424.72
2024-01-14T03:39:38.753Z,99427.59
2024-01-14T03:42:06.045Z,99423.13
2024-01-14T03:44:33.242Z,99417.28
2024-01-14T03:47:00.840Z,99415.69
2024-01-14T03:49:28.225Z,99417.44
2024-01-14T03:51:55.493Z,99411.22
2024-01-14T03:54:23.129Z,99409.38
2024-01-14T03:56:50.421Z,99419.16
2024-01-14T03:59:17.636Z,99414.72
2024-01-14T04:01:45.215Z,99406.47
2024-01-14T04:04:12.964Z,99413.06
2024-01-14T04:06:40.284Z,99398.19
2024-01-14T04:09:07.651Z,99406.56
2024-01-14T04:11:36.823Z,99404.28
2024-01-14T04:14:04.203Z,99397.03
2024-01-14T04:16:41.006Z,99395.44
2024-01-14T04:19:08.835Z,99384.19
2024-01-14T04:21:36.195Z,99380.41
2024-01-14T04:24:03.992Z,99384.28
2024-01-14T04:26:31.635Z,99394.25
2024-01-14T04:28:59.291Z,99388.69
2024-01-14T04:31:26.737Z,99403.81
2024-01-14T04:33:54.376Z,99404.94
2024-01-14T04:36:21.739Z,99391.19
2024-01-14T04:38:48.962Z,99396.34
2024-01-14T04:41:16.689Z,99386.63
2024-01-14T04:43:43.891Z,99394.31
2024-01-14T04:46:11.798Z,99383.72
2024-01-14T04:48:39.521Z,99386.84
2024-01-14T04:51:06.998Z,99384.37
2024-01-14T04:53:34.343Z,99381.47
2024-01-14T04:56:03.981Z,99389.47
2024-01-14T04:58:31.202Z,99391.50
2024-01-14T05:00:58.411Z,99378.16
2024-01-14T05:03:26.334Z,99377.88
2024-01-14T05:05:54.442Z,99389.53
2024-01-14T05:08:22.409Z,99365.75
2024-01-14T05:10:49.891Z,99363.09
2024-01-14T05:13:17.134Z,99365.44
2024-01-14T05:15:44.373Z,99363.44
2024-01-14T05:18:12.107Z,99370.75
2024-01-14T05:20:40.513Z,99383.28
2024-01-14T05:23:09.218Z,99389.25
2024-01-14T05:25:37.063Z,99383.28
2024-01-14T05:28:04.326Z,99373.34
2024-01-14T05:30:31.685Z,99385.59
2024-01-14T05:32:59.393Z,99384.59
2024-01-14T05:35:26.609Z,99382.97
2024-01-14T05:37:53.980Z,99378.69
2024-01-14T05:40:21.561Z,99373.72
2024-01-14T05:42:48.721Z,99369.81
2024-01-14T05:45:16.091Z,99381.91
2024-01-14T05:47:43.781Z,99373.50
2024-01-14T05:50:11.877Z,99369.41
2024-01-14T05:52:39.119Z,99381.81
2024-01-14T05:55:06.785Z,99386.22
2024-01-14T05:57:34.084Z,99375.72
2024-01-14T06:00:01.636Z,99367.81
2024-01-14T06:02:33.769Z,99369.81
2024-01-14T06:05:01.435Z,99371.59
2024-01-14T06:07:28.745Z,99374.00
2024-01-14T06:09:56.343Z,99377.72
2024-01-14T06:12:23.914Z,99389.25
2024-01-14T06:14:51.148Z,99396.19
2024-01-14T06:17:18.394Z,99386.38
2024-01-14T06:19:45.965Z,99393.97
2024-01-14T06:22:13.671Z,99392.44
2024-01-14T06:24:41.006Z,99391.09
2024-01-14T06:27:08.557Z,99382.69
2024-01-14T06:29:35.837Z,99375.03
2024-01-14T06:32:03.134Z,99375.28
2024-01-14T06:34:30.737Z,99376.16
2024-01-14T06:36:57.921Z,99381.28
2024-01-14T06:39:25.149Z,99375.37
2024-01-14T06:41:52.965Z,99390.63
2024-01-14T06:44:20.285Z,99398.50
2024-01-14T06:46:47.753Z,99399.03
2024-01-14T06:49:15.373Z,99388.63
2024-01-14T06:51:43.711Z,99385.78
2024-01-14T06:54:11.358Z,99377.81
2024-01-14T06:56:45.380Z,99381.72
2024-01-14T06:59:13.515Z,99370.56
2024-01-14T07:01:40.983Z,99373.38
2024-01-14T07:04:08.369Z,99378.91
2024-01-14T07:06:35.605Z,99381.06
2024-01-14T07:09:03.131Z,99386.34
2024-01-14T07:11:30.416Z,99393.03
2024-01-14T07:13:59.635Z,99390.75
2024-01-14T07:16:27.221Z,99387.53
2024-01-14T07:18:54.975Z,99382.41
2024-01-14T07:21:24.254Z,99372.47
2024-01-14T07:23:51.917Z,99378.97
2024-01-14T07:26:22.558Z,99391.78
2024-01-14T07:28:54.286Z,99391.09
2024-01-14T07:31:23.253Z,99392.22
2024-01-14T07:33:51.879Z,99394.84
2024-01-14T07:36:21.089Z,99384.91
2024-01-14T07:38:49.044Z,99385.97
2024-01-14T07:41:17.061Z,99379.47
2024-01-14T07:43:46.372Z,99381.81
2024-01-14T07:46:14.723Z,99390.63
2024-01-14T07:48:43.686Z,99394.09
2024-01-14T07:51:11.581Z,99394.62
2024-01-14T07:53:38.828Z,99390.94
2024-01-14T07:56:06.271Z,99393.88
2024-01-14T07:58:34.295Z,99387.62
2024-01-14T08:01:03.709Z,99389.59
2024-01-14T08:03:32.470Z,99390.78
2024-01-14T08:06:00.932Z,99380.19
2024-01-14T08:08:28.566Z,99395.78
2024-01-14T08:10:56.098Z,99386.84
2024-01-14T08:13:23.338Z,99389.19
2024-01-14T08:15:57.923Z,99403.72
2024-01-14T08:18:30.941Z,99398.87
2024-01-14T08:20:59.093Z,99392.28
2024-01-14T08:23:26.368Z,99384.75
2024-01-14T08:25:53.864Z,99383.59
2024-01-14T08:28:21.735Z,99385.84
2024-01-14T08:30:50.456Z,99386.22
2024-01-14T08:33:18.353Z,99390.22
2024-01-14T08:35:46.286Z,99397.44
2024-01-14T08:38:13.561Z,99398.03
2024-01-14T08:40:41.081Z,99398.19
2024-01-14T08:43:08.347Z,99403.28
2024-01-14T08:45:35.587Z,99401.44
2024-01-14T08:48:03.295Z,99403.62
2024-01-14T08:50:30.597Z,99404.47
2024-01-14T08:52:57.779Z,99402.59
2024-01-14T08:55:25.350Z,99404.97
2024-01-14T08:57:52.579Z,99394.16
2024-01-14T09:00:20.130Z,99405.97
2024-01-14T09:02:47.867Z,99410.03
2024-01-14T09:05:15.159Z,99411.69
2024-01-14T09:07:43.042Z,99411.66
2024-01-14T09:10:11.703Z,99419.44
2024-01-14T09:12:39.005Z,99412.22
2024-01-14T09:15:06.666Z,99415.47
2024-01-14T09:17:36.820Z,99410.00
2024-01-14T09:20:06.306Z,99412.78
2024-01-14T09:22:34.062Z,99411.09
2024-01-14T09:25:01.227Z,99408.31
2024-01-14T09:27:31.717Z,99408.34
2024-01-14T09:29:59.815Z,99406.59
2024-01-14T09:32:27.407Z,99411.97
2024-01-14T09:34:55.543Z,99415.53
2024-01-14T09:37:23.171Z,99397.44
2024-01-14T09:39:50.370Z,99396.41
2024-01-14T09:42:20.458Z,99392.84
2024-01-14T09:44:48.233Z,99394.47
2024-01-14T09:47:15.873Z,99384.91
2024-01-14T09:49:43.307Z,99376.03
2024-01-14T09:52:10.977Z,99380.66
2024-01-14T09:54:38.211Z,99365.25
2024-01-14T09:57:07.378Z,99356.03
2024-01-14T09:59:34.946Z,99359.09
2024-01-14T10:02:02.570Z,99359.75
2024-01-14T10:04:31.190Z,99368.13
2024-01-14T10:06:58.681Z,99363.75
2024-01-14T10:09:26.362Z,99348.59
2024-01-14T10:11:53.970Z,99357.41
2024-01-14T10:14:25.497Z,99347.44
2024-01-14T10:16:55.394Z,99341.72
2024-01-14T10:19:23.640Z,99343.69
2024-01-14T10:22:13.611Z,99343.59
2024-01-14T10:24:42.732Z,99344.72
2024-01-14T10:27:12.051Z,99342.03
2024-01-14T10:29:40.580Z,99335.88
2024-01-14T10:32:08.954Z,99339.22
2024-01-14T10:34:36.462Z,99334.78
2024-01-14T10:37:04.456Z,99331.37
2024-01-14T10:39:32.548Z,99328.72
2024-01-14T10:42:02.848Z,99331.25
2024-01-14T10:44:31.090Z,99331.78
2024-01-14T10:47:00.286Z,99324.53
2024-01-14T10:49:28.356Z,99317.72
2024-01-14T10:52:03.168Z,99323.66
2024-01-14T10:54:33.701Z,99306.63
2024-01-14T10:57:05.064Z,99308.44
2024-01-14T10:59:32.569Z,99311.91
2024-01-14T11:02:00.035Z,99307.25
2024-01-14T11:04:27.969Z,99308.47
2024-01-14T11:06:56.785Z,99298.00
2024-01-14T11:09:24.337Z,99289.28
2024-01-14T11:11:53.048Z,99287.44
2024-01-14T11:14:22.478Z,99287.38
2024-01-14T11:17:09.913Z,99272.41
2024-01-14T11:19:38.611Z,99285.84
2024-01-14T11:22:33.225Z,99283.28
2024-01-14T11:25:05.472Z,99277.59
2024-01-14T11:27:33.761Z,99276.78
2024-01-14T11:30:01.513Z,99273.53
2024-01-14T11:32:29.427Z,99272.94
2024-01-14T11:34:59.355Z,99276.25
2024-01-14T11:37:30.612Z,99269.22
2024-01-14T11:40:07.311Z,99266.25
2024-01-14T11:42:35.039Z,99273.19
2024-01-14T11:45:02.847Z,99271.31
2024-01-14T11:47:36.560Z,99267.25
2024-01-14T11:50:04.222Z,99262.00
2024-01-14T11:52:31.487Z,99252.34
2024-01-14T11:54:58.770Z,99244.97
2024-01-14T11:57:26.262Z,99250.25
2024-01-14T11:59:55.683Z,99254.25
2024-01-14T12:02:23.051Z,99239.50
2024-01-14T12:04:57.963Z,99241.78
2024-01-14T12:07:31.938Z,99235.47
2024-01-14T12:09:59.537Z,99225.50
2024-01-14T12:12:27.817Z,99235.41
2024-01-14T12:14:55.450Z,99219.50
2024-01-14T12:17:23.112Z,99214.41
2024-01-14T12:19:57.979Z,99224.22
2024-01-14T12:22:25.800Z,99212.09
2024-01-14T12:24:53.023Z,99205.44
2024-01-14T12:27:20.592Z,99208.34
2024-01-14T12:29:48.067Z,99206.81
2024-01-14T12:32:16.541Z,99199.03
2024-01-14T12:34:45.144Z,99193.72
2024-01-14T12:37:14.010Z,99192.19
2024-01-14T12:39:41.907Z,99192.84
2024-01-14T12:42:09.922Z,99184.66
2024-01-14T12:44:48.278Z,99182.84
2024-01-14T12:47:15.774Z,99180.13
2024-01-14T12:49:45.132Z,99184.16
2024-01-14T12:52:12.578Z,99188.41
2024-01-14T12:54:39.789Z,99193.31
2024-01-14T12:57:17.137Z,99181.34
2024-01-14T12:59:50.895Z,99183.81
2024-01-14T13:02:19.146Z,99171.38
2024-01-14T13:04:47.166Z,99179.78
2024-01-14T13:07:14.960Z,99177.06
2024-01-14T13:09:43.172Z,99171.41
2024-01-14T13:12:10.779Z,99170.69
2024-01-14T13:14:38.010Z,99174.44
2024-01-14T13:17:05.498Z,99169.66
2024-01-14T13:19:32.872Z,99168.59
2024-01-14T13:22:00.234Z,99175.31
2024-01-14T13:24:30.444Z,99177.41
2024-01-14T13:26:58.959Z,99178.66
2024-01-14T13:29:26.344Z,99173.25
2024-01-14T13:31:54.050Z,99169.00
2024-01-14T13:34:21.631Z,99176.97
2024-01-14T13:36:50.699Z,99178.53
2024-01-14T13:39:18.771Z,99176.56
2024-01-14T13:41:50.034Z,99169.41
2024-01-14T13:44:18.968Z,99178.03
2024-01-14T13:46:49.131Z,99183.94
2024-01-14T13:49:20.067Z,99181.22
2024-01-14T13:51:47.843Z,99186.28
2024-01-14T13:54:17.008Z,99187.16
2024-01-14T13:56:50.310Z,99189.72
2024-01-14T13:59:17.969Z,99189.84
2024-01-14T14:01:45.564Z,99190.12
2024-01-14T14:04:13.197Z,99184.13
2024-01-14T14:06:40.848Z,99196.62
2024-01-14T14:09:09.582Z,99187.44
2024-01-14T14:11:38.493Z,99187.19
2024-01-14T14:14:07.118Z,99180.78
2024-01-14T14:16:40.306Z,99181.94
2024-01-14T14:19:12.219Z,99176.84
2024-01-14T14:24:11.097Z,99166.59
2024-01-14T14:26:38.329Z,99166.38
2024-01-14T14:29:06.351Z,99161.34
2024-01-14T14:31:43.897Z,99160.75
2024-01-14T14:34:16.645Z,99166.16
2024-01-14T14:36:45.465Z,99168.63
2024-01-14T14:39:13.638Z,99170.25
2024-01-14T14:41:41.181Z,99166.88
2024-01-14T14:44:11.044Z,99152.88
2024-01-14T14:46:38.833Z,99157.88
2024-01-14T14:49:08.495Z,99159.03
2024-01-14T14:51:40.861Z,99151.28
2024-01-14T14:54:10.405Z,99153.25
2024-01-14T14:56:39.624Z,99146.06
2024-01-14T14:59:06.980Z,99149.31
2024-01-14T15:01:41.904Z,99151.44
2024-01-14T15:04:24.190Z,99150.38
2024-01-14T15:06:51.792Z,99150.75
2024-01-14T15:09:19.471Z,99150.16
2024-01-14T15:11:46.761Z,99152.09
2024-01-14T15:14:13.993Z,99149.81
2024-01-14T15:16:43.146Z,99151.56
2024-01-14T15:19:10.916Z,99148.97
2024-01-14T15:21:38.344Z,99148.28
2024-01-14T15:24:06.309Z,99147.91
2024-01-14T15:26:33.758Z,99141.63
2024-01-14T15:29:01.022Z,99141.41
2024-01-14T15:31:28.689Z,99144.94
2024-01-14T15:33:56.969Z,99141.25
2024-01-14T15:36:24.788Z,99150.66
2024-01-14T15:38:52.746Z,99149.81
2024-01-14T15:41:20.094Z,99146.06
2024-01-14T15:43:48.541Z,99149.03
2024-01-14T15:46:16.295Z,99138.34
2024-01-14T15:48:48.029Z,99150.41
2024-01-14T15:51:16.009Z,99144.69
2024-01-14T15:53:43.740Z,99140.44
2024-01-14T15:56:12.270Z,99149.63
2024-01-14T15:58:41.529Z,99138.28
2024-01-14T16:01:12.016Z,99139.91
2024-01-14T16:03:46.390Z,99138.06
2024-01-14T16:06:15.325Z,99129.31
2024-01-14T16:08:46.733Z,99123.22
2024-01-14T16:11:14.672Z,99129.59
2024-01-14T16:13:41.858Z,99126.47
2024-01-14T16:16:09.365Z,99127.16
2024-01-14T16:18:36.855Z,99121.28
2024-01-14T16:21:07.046Z,99123.34
2024-01-14T16:23:37.976Z,99129.50
2024-01-14T16:26:06.474Z,99130.34
2024-01-14T16:28:33.781Z,99127.72
2024-01-14T16:31:09.933Z,99125.00
2024-01-14T16:33:45.928Z,99128.38
2024-01-14T16:36:15.207Z,99123.91
2024-01-14T16:38:42.849Z,99128.44
2024-01-14T16:41:10.153Z,99120.72
2024-01-14T16:43:37.918Z,99113.66
2024-01-14T16:46:06.726Z,99122.88
2024-01-14T16:48:35.045Z,99125.13
2024-01-14T16:51:08.803Z,99118.72
2024-01-14T16:53:41.171Z,99121.81
2024-01-14T16:56:13.880Z,99118.47
2024-01-14T16:58:43.351Z,99119.75
2024-01-14T17:01:16.268Z,99115.84
2024-01-14T17:03:47.223Z,99121.66
2024-01-14T17:06:16.800Z,99114.81
2024-01-14T17:08:49.217Z,99122.16
2024-01-14T17:11:20.828Z,99115.28
2024-01-14T17:13:48.409Z,99108.44
2024-01-14T17:16:21.356Z,99116.13
2024-01-14T17:18:49.933Z,99110.16
2024-01-14T17:21:18.666Z,99110.97
2024-01-14T17:23:46.645Z,99107.59
2024-01-14T17:26:14.290Z,99101.97
2024-01-14T17:28:44.454Z,99095.38
2024-01-14T17:31:13.289Z,99097.69
2024-01-14T17:33:42.321Z,99091.19
2024-01-14T17:36:13.691Z,99094.97
2024-01-14T17:38:42.206Z,99097.81
2024-01-14T17:41:10.777Z,99095.56
2024-01-14T17:43:38.711Z,99095.84
2024-01-14T17:46:08.986Z,99096.88
2024-01-14T17:48:38.594Z,99086.19
2024-01-14T17:51:06.347Z,99099.91
2024-01-14T17:53:33.608Z,99102.94
2024-01-14T17:56:01.210Z,99089.34
2024-01-14T17:58:29.612Z,99087.44
2024-01-14T18:00:57.187Z,99086.53
2024-01-14T18:03:25.127Z,99080.16
2024-01-14T18:05:52.889Z,99087.00
2024-01-14T18:08:20.653Z,99085.91
2024-01-14T18:10:50.212Z,99084.38
2024-01-14T18:13:17.960Z,99093.72
2024-01-14T18:15:46.635Z,99084.41
2024-01-14T18:18:15.929Z,99077.53
2024-01-14T18:20:43.623Z,99083.25
2024-01-14T18:23:13.554Z,99083.06
2024-01-14T18:25:43.837Z,99077.88
2024-01-14T18:28:12.051Z,99089.22
2024-01-14T18:30:39.674Z,99081.00
2024-01-14T18:33:11.812Z,99077.03
2024-01-14T18:35:46.443Z,99071.19
2024-01-14T18:38:15.665Z,99072.84
2024-01-14T18:40:43.627Z,99081.16
2024-01-14T18:43:12.007Z,99077.25
2024-01-14T18:45:40.050Z,99081.41
2024-01-14T18:48:07.953Z,99079.53
2024-01-14T18:50:36.053Z,99079.56
2024-01-14T18:53:06.051Z,99079.47
2024-01-14T18:55:39.229Z,99082.03
2024-01-14T18:58:07.296Z,99075.88
2024-01-14T19:00:35.543Z,99079.53
2024-01-14T19:03:03.702Z,99069.91
2024-01-14T19:05:35.928Z,99075.19
2024-01-14T19:08:03.601Z,99068.16
2024-01-14T19:10:35.808Z,99073.53
2024-01-14T19:13:03.538Z,99068.56
2024-01-14T19:15:31.446Z,99072.13
2024-01-14T19:17:58.969Z,99069.16
2024-01-14T19:20:29.196Z,99069.41
2024-01-14T19:22:57.203Z,99064.09
2024-01-14T19:25:25.076Z,99066.31
2024-01-14T19:27:52.613Z,99065.66
2024-01-14T19:30:21.082Z,99063.78
2024-01-14T19:32:48.973Z,99056.69
2024-01-14T19:35:16.808Z,99062.22
2024-01-14T19:37:47.160Z,99057.84
2024-01-14T19:40:15.791Z,99053.34
2024-01-14T19:42:44.454Z,99056.94
2024-01-14T19:45:13.239Z,99057.63
2024-01-14T19:47:41.205Z,99061.00
2024-01-14T19:50:09.272Z,99058.63
2024-01-14T19:52:38.596Z,99060.69
2024-01-14T19:55:07.783Z,99052.22
2024-01-14T19:57:38.560Z,99045.56
2024-01-14T20:00:10.541Z,99043.16
2024-01-14T20:02:41.887Z,99036.06
2024-01-14T20:05:11.265Z,99030.09
2024-01-14T20:07:41.254Z,99026.53
2024-01-14T20:10:09.854Z,99022.94
2024-01-14T20:12:37.980Z,99017.56
2024-01-14T20:15:06.058Z,99009.56
2024-01-14T20:17:34.006Z,99006.28
2024-01-14T20:20:02.202Z,99008.09
2024-01-14T20:22:30.323Z,99000.69
2024-01-14T20:25:00.030Z,98994.87
2024-01-14T20:27:27.680Z,98991.62
2024-01-14T20:29:55.711Z,98987.53
2024-01-14T20:32:24.279Z,98988.53
2024-01-14T20:34:52.260Z,98985.44
2024-01-14T20:37:21.252Z,98980.34
2024-01-14T20:39:49.158Z,98987.69
2024-01-14T20:42:17.164Z,98977.38
2024-01-14T20:44:45.930Z,98967.59
2024-01-14T20:47:13.262Z,98968.09
2024-01-14T20:49:41.931Z,98965.81
2024-01-14T20:52:09.747Z,98968.41
2024-01-14T20:54:37.511Z,98964.94
2024-01-14T20:57:09.500Z,98969.06
2024-01-14T20:59:37.212Z,98968.72
2024-01-14T21:02:05.955Z,98962.25
2024-01-14T21:04:33.386Z,98956.34
2024-01-14T21:07:01.013Z,98956.25
2024-01-14T21:09:28.335Z,98956.78
2024-01-14T21:11:55.582Z,98961.91
2024-01-14T21:14:23.402Z,98959.44
2024-01-14T21:16:50.601Z,98959.03
2024-01-14T21:19:18.011Z,98951.06
2024-01-14T21:21:45.907Z,98953.97
2024-01-14T21:24:13.622Z,98946.34
2024-01-14T21:26:41.557Z,98946.72
2024-01-14T21:29:10.299Z,98943.03
2024-01-14T21:31:37.639Z,98936.78
2024-01-14T21:34:05.043Z,98931.66
2024-01-14T21:36:35.290Z,98926.16
2024-01-14T21:39:03.093Z,98916.75
2024-01-14T21:41:30.291Z,98920.53
2024-01-14T21:43:58.367Z,98914.13
2024-01-14T21:46:25.578Z,98910.41
2024-01-14T21:48:52.929Z,98919.53
2024-01-14T21:51:20.489Z,98911.34
2024-01-14T21:53:47.805Z,98917.88
2024-01-14T21:56:15.223Z,98918.34
2024-01-14T21:58:42.656Z,98916.16
2024-01-14T22:01:10.368Z,98919.53
2024-01-14T22:03:38.389Z,98919.28
2024-01-14T22:06:05.846Z,98915.78
2024-01-14T22:08:34.341Z,98909.66
2024-01-14T22:11:01.821Z,98902.66
2024-01-14T22:13:29.375Z,98896.81
2024-01-14T22:15:56.684Z,98891.62
2024-01-14T22:18:24.438Z,98884.06
2024-01-14T22:20:51.735Z,98882.53
2024-01-14T22:23:18.939Z,98878.66
2024-01-14T22:25:46.404Z,98885.22
2024-01-14T22:28:16.774Z,98876.47
2024-01-14T22:30:46.779Z,98881.41
2024-01-14T22:33:14.587Z,98877.03
2024-01-14T22:35:42.138Z,98874.31
2024-01-14T22:38:09.419Z,98879.38
2024-01-14T22:40:36.895Z,98877.88
2024-01-14T22:43:04.762Z,98879.06
2024-01-14T22:45:33.414Z,98870.22
2024-01-14T22:48:01.103Z,98859.50
2024-01-14T22:50:28.411Z,98855.56
2024-01-14T22:52:55.576Z,98862.28
2024-01-14T22:55:23.033Z,98863.88
2024-01-14T22:57:50.355Z,98847.81
2024-01-14T23:00:26.449Z,98845.38
2024-01-14T23:02:55.584Z,98843.47
2024-01-14T23:05:23.046Z,98840.78
2024-01-14T23:07:50.309Z,98828.16
2024-01-14T23:10:17.850Z,98824.06
2024-01-14T23:12:45.109Z,98824.56
2024-01-14T23:15:12.576Z,98827.59
2024-01-14T23:17:43.104Z,98826.97
2024-01-14T23:20:10.653Z,98815.50
2024-01-14T23:22:37.837Z,98805.63
2024-01-14T23:25:05.689Z,98804.19
2024-01-14T23:27:34.240Z,98805.06
2024-01-14T23:30:01.611Z,98792.00
2024-01-14T23:32:30.946Z,98792.28
2024-01-14T23:34:58.455Z,98788.22
2024-01-14T23:37:25.895Z,98788.19
2024-01-14T23:39:53.457Z,98781.16
2024-01-14T23:42:21.010Z,98768.72
2024-01-14T23:44:48.219Z,98756.63
2024-01-14T23:47:15.695Z,98756.81
2024-01-14T23:49:45.218Z,98746.03
2024-01-14T23:52:12.720Z,98746.44
2024-01-14T23:54:40.267Z,98741.03
2024-01-14T23:57:15.213Z,98736.47
2024-01-14T23:59:44.386Z,98727.66
